Time;durP1;ratioP1;P1;durP2;ratioP2;P2;SDS_P1;SDS_P2;PMS_P1;PMS_P2;Temp;Humidity;BMP_temperature;BMP_pressure;BME280_temperature;BME280_humidity;BME280_pressure;Samples;Min_cycle;Max_cycle;Signal;HPM_P1;HPM_P2
2023/04/05 00:01:48;;;;;;;4.47;4.07;;;;;;;21.78;30.32;94512.81;6020752;28;109080;-67
2023/04/05 00:04:56;;;;;;;4.37;4.07;;;;;;;21.84;30.42;94508.13;6019557;28;108992;-67
2023/04/05 00:08:01;;;;;;;4.57;4.23;;;;;;;21.86;30.84;94503.28;6018800;28;108821;-66
2023/04/05 00:11:04;;;;;;;4.10;3.80;;;;;;;21.87;30.96;94499.53;6015530;29;108850;-66
2023/04/05 00:14:08;;;;;;;4.57;4.17;;;;;;;21.85;31.11;94495.63;6020007;28;108951;-66
2023/04/05 00:17:12;;;;;;;4.00;3.70;;;;;;;21.84;31.20;94513.47;6019699;29;108873;-67
2023/04/05 00:20:17;;;;;;;4.67;4.37;;;;;;;21.80;30.61;94497.31;6008583;28;108893;-66
2023/04/05 00:23:21;;;;;;;4.40;4.10;;;;;;;21.83;30.74;94503.13;6019543;29;108994;-67
2023/04/05 00:26:25;;;;;;;4.40;4.10;;;;;;;21.83;30.74;94509.22;6019585;28;108890;-67
2023/04/05 00:29:28;;;;;;;4.43;4.13;;;;;;;21.82;31.10;94502.34;6019875;28;108909;-66
2023/04/05 00:32:32;;;;;;;4.50;4.10;;;;;;;21.83;30.37;94505.78;6009540;29;108919;-66
2023/04/05 00:35:37;;;;;;;3.93;3.73;;;;;;;21.82;30.52;94507.66;6019312;28;108932;-66
2023/04/05 00:38:42;;;;;;;4.80;4.47;;;;;;;21.79;30.67;94502.94;6019780;28;108959;-67
2023/04/05 00:41:45;;;;;;;4.50;4.20;;;;;;;21.85;30.74;94511.59;6019398;28;108905;-67
2023/04/05 00:44:50;;;;;;;4.33;4.03;;;;;;;21.84;30.75;94510.78;6008907;28;109198;-66
2023/04/05 00:47:55;;;;;;;4.70;4.40;;;;;;;21.84;30.66;94507.34;6026452;28;108929;-67
2023/04/05 00:51:00;;;;;;;4.87;4.50;;;;;;;21.83;30.42;94517.22;6020452;28;108895;-67
2023/04/05 00:54:05;;;;;;;4.53;4.23;;;;;;;21.80;30.53;94512.50;6014042;28;108934;-68
2023/04/05 00:57:10;;;;;;;4.40;4.10;;;;;;;21.83;30.53;94503.91;6016048;29;108931;-67
2023/04/05 01:00:14;;;;;;;4.40;4.10;;;;;;;21.83;30.79;94517.22;6018894;28;109000;-67
2023/04/05 01:03:19;;;;;;;4.40;4.10;;;;;;;21.84;30.58;94508.13;6018555;28;108937;-67
2023/04/05 01:06:35;;;;;;;4.50;4.20;;;;;;;21.84;30.69;94518.78;6008556;29;109047;-67
2023/04/05 01:09:48;;;;;;;4.23;3.97;;;;;;;21.84;30.66;94515.34;5996233;29;109054;-68
2023/04/05 01:12:52;;;;;;;4.43;4.13;;;;;;;21.86;30.50;94519.28;5995821;29;108957;-66
2023/04/05 01:15:56;;;;;;;4.30;4.00;;;;;;;21.85;29.99;94515.06;5995886;29;108953;-66
2023/04/05 01:19:00;;;;;;;4.30;4.00;;;;;;;21.86;30.12;94521.16;6016413;28;108971;-67
2023/04/05 01:22:31;;;;;;;4.10;3.80;;;;;;;21.85;30.58;94517.72;6042291;28;108875;-69
2023/04/05 01:26:13;;;;;;;3.60;3.40;;;;;;;21.86;30.38;94518.50;6042459;28;108882;-67
2023/04/05 01:29:42;;;;;;;4.33;4.03;;;;;;;21.86;30.48;94521.16;6031925;28;109171;-68
2023/04/05 01:33:01;;;;;;;4.37;4.07;;;;;;;21.80;30.37;94515.94;6041663;28;108776;-67
2023/04/05 01:36:14;;;;;;;4.50;4.20;;;;;;;21.86;30.10;94518.50;6024268;28;108948;-67
2023/04/05 01:39:20;;;;;;;4.40;4.10;;;;;;;21.86;30.13;94523.81;6013363;28;108957;-67
2023/04/05 01:42:25;;;;;;;4.10;3.80;;;;;;;21.86;30.01;94521.94;6014165;28;109039;-67
2023/04/05 01:45:30;;;;;;;4.00;3.70;;;;;;;21.86;30.27;94515.84;6018183;28;108942;-66
2023/04/05 01:48:33;;;;;;;3.83;3.53;;;;;;;21.89;30.02;94521.31;6018046;28;108975;-68
2023/04/05 01:51:40;;;;;;;3.47;3.27;;;;;;;21.90;30.27;94514.09;6006831;28;108978;-68
2023/04/05 01:54:44;;;;;;;3.43;3.23;;;;;;;21.88;30.02;94517.06;6018089;28;108961;-68
2023/04/05 01:57:47;;;;;;;4.07;3.77;;;;;;;21.86;30.42;94519.28;6018295;29;108897;-68
2023/04/05 02:00:56;;;;;;;3.77;3.57;;;;;;;21.89;30.33;94526.63;6018280;29;108983;-68
2023/04/05 02:03:59;;;;;;;3.60;3.30;;;;;;;21.89;30.20;94523.97;6007138;29;108888;-68
2023/04/05 02:07:03;;;;;;;3.90;3.60;;;;;;;21.89;30.52;94533.84;6017830;29;108952;-68
2023/04/05 02:10:08;;;;;;;3.60;3.40;;;;;;;21.90;29.94;94530.06;6018237;29;108863;-68
2023/04/05 02:13:12;;;;;;;3.10;2.90;;;;;;;21.89;30.02;94531.97;6013049;28;108881;-67
2023/04/05 02:16:17;;;;;;;3.43;3.23;;;;;;;21.91;30.00;94527.09;6012193;28;108937;-68
2023/04/05 02:19:21;;;;;;;3.37;3.17;;;;;;;21.89;30.05;94523.97;6036182;28;109002;-67
2023/04/05 02:22:25;;;;;;;3.27;3.07;;;;;;;21.91;30.10;94519.09;6040655;28;108907;-68
2023/04/05 02:25:29;;;;;;;3.47;3.23;;;;;;;21.91;29.79;94521.75;6030844;28;109292;-68
2023/04/05 02:28:33;;;;;;;2.93;2.73;;;;;;;21.89;29.72;94531.19;6040962;28;108969;-69
2023/04/05 02:31:38;;;;;;;3.90;3.60;;;;;;;21.91;29.71;94516.44;6041130;28;108919;-68
2023/04/05 02:34:42;;;;;;;3.20;3.00;;;;;;;21.91;29.84;94531.63;6034025;28;109107;-68
2023/04/05 02:37:45;;;;;;;3.13;2.83;;;;;;;21.90;29.64;94530.84;6007111;28;109076;-69
2023/04/05 02:40:49;;;;;;;2.83;2.63;;;;;;;21.90;30.13;94525.53;6017664;29;108848;-68
2023/04/05 02:43:53;;;;;;;3.20;3.00;;;;;;;21.91;30.20;94519.09;6018609;28;108971;-69
2023/04/05 02:46:58;;;;;;;2.90;2.70;;;;;;;22.00;30.01;94519.84;6021430;28;108990;-63
2023/04/05 02:50:01;;;;;;;3.40;3.20;;;;;;;21.99;29.47;94510.28;5988025;29;109685;-63
2023/04/05 02:53:05;;;;;;;2.87;2.67;;;;;;;22.13;29.21;94522.63;6012376;29;108906;-64
2023/04/05 02:56:08;;;;;;;2.87;2.67;;;;;;;22.16;29.17;94520.13;5999589;29;108935;-64
2023/04/05 02:59:12;;;;;;;2.83;2.63;;;;;;;22.20;29.44;94512.28;6011054;29;108887;-65
2023/04/05 03:02:17;;;;;;;3.00;2.80;;;;;;;22.20;29.48;94522.94;6019274;29;108853;-64
2023/04/05 03:05:21;;;;;;;3.00;2.80;;;;;;;22.21;29.59;94519.97;6020486;29;108948;-63
2023/04/05 03:08:24;;;;;;;2.67;2.50;;;;;;;22.25;29.59;94504.09;6020972;29;108911;-63
2023/04/05 03:11:28;;;;;;;2.87;2.67;;;;;;;22.24;29.23;94513.22;6009887;28;108891;-63
2023/04/05 03:14:33;;;;;;;2.60;2.50;;;;;;;22.25;29.71;94514.78;6021453;28;109275;-67
2023/04/05 03:17:37;;;;;;;2.27;2.10;;;;;;;22.26;29.72;94516.34;6025193;28;108938;-63
2023/04/05 03:20:41;;;;;;;2.70;2.50;;;;;;;22.31;29.77;94524.16;6044553;28;108894;-64
2023/04/05 03:23:45;;;;;;;2.27;2.17;;;;;;;22.31;29.40;94518.81;6032891;28;108964;-63
2023/04/05 03:26:49;;;;;;;2.70;2.50;;;;;;;22.33;29.46;94516.59;6026792;28;108943;-64
2023/04/05 03:29:52;;;;;;;2.77;2.57;;;;;;;22.33;29.92;94520.06;6020982;29;109019;-63
2023/04/05 03:33:00;;;;;;;2.53;2.43;;;;;;;22.34;29.67;94515.50;6016270;28;109983;-63
2023/04/05 03:36:04;;;;;;;2.40;2.30;;;;;;;22.37;30.11;94522.88;6015674;29;109113;-64
2023/04/05 03:39:07;;;;;;;2.90;2.70;;;;;;;22.36;29.80;94530.09;6020629;28;108819;-64
2023/04/05 03:42:11;;;;;;;2.90;2.70;;;;;;;22.37;30.31;94528.22;6020848;29;108952;-63
2023/04/05 03:45:15;;;;;;;2.60;2.40;;;;;;;22.36;29.71;94530.09;6010138;28;108942;-64
2023/04/05 03:48:26;;;;;;;2.73;2.53;;;;;;;22.24;30.23;94535.31;6028316;28;108848;-67
2023/04/05 03:51:36;;;;;;;2.70;2.50;;;;;;;22.22;30.41;94536.72;6020659;28;108815;-69
2023/04/05 03:54:46;;;;;;;3.00;2.80;;;;;;;22.24;30.11;94539.88;6019460;28;108961;-67
2023/04/05 03:57:50;;;;;;;3.00;2.80;;;;;;;22.32;30.27;94552.38;6017087;28;108961;-69
2023/04/05 04:00:55;;;;;;;3.50;3.30;;;;;;;22.40;30.66;94539.03;6018347;28;108951;-68
2023/04/05 04:04:00;;;;;;;3.80;3.60;;;;;;;22.41;30.61;94548.59;6025184;28;108988;-70
2023/04/05 04:07:03;;;;;;;3.80;2.93;;;;;;;22.41;30.83;94547.81;6015608;28;109620;-68
2023/04/05 04:10:09;;;;;;;5.23;3.47;;;;;;;22.27;29.57;94556.00;6017454;28;109419;-69
2023/04/05 04:13:12;;;;;;;3.27;3.07;;;;;;;22.14;28.12;94556.19;6029229;28;108904;-68
2023/04/05 04:16:16;;;;;;;3.33;3.10;;;;;;;22.06;27.99;94555.91;6021194;28;109026;-66
2023/04/05 04:19:22;;;;;;;3.47;3.20;;;;;;;22.00;26.95;94562.47;6009498;28;109149;-66
2023/04/05 04:22:31;;;;;;;3.50;3.30;;;;;;;21.98;27.60;94554.03;6020033;29;108908;-66
2023/04/05 04:25:36;;;;;;;3.17;2.97;;;;;;;21.95;27.77;94552.00;6018544;28;108933;-68
2023/04/05 04:28:42;;;;;;;3.13;2.93;;;;;;;22.04;27.79;94563.44;6031281;28;108903;-68
2023/04/05 04:31:48;;;;;;;3.37;3.07;;;;;;;22.07;28.33;94562.00;6033214;28;109043;-68
2023/04/05 04:34:54;;;;;;;4.03;2.87;;;;;;;21.94;28.82;94549.66;6043001;28;108967;-68
2023/04/05 04:37:59;;;;;;;4.20;3.50;;;;;;;22.03;28.94;94561.88;6043385;28;108926;-68
2023/04/05 04:41:07;;;;;;;3.80;3.50;;;;;;;22.01;29.20;94561.41;6038664;28;109892;-68
2023/04/05 04:44:13;;;;;;;3.60;3.40;;;;;;;22.00;29.11;94561.69;6037133;28;109264;-68
2023/04/05 04:47:20;;;;;;;4.00;3.60;;;;;;;21.99;28.94;94566.25;6043005;28;109064;-68
2023/04/05 04:50:25;;;;;;;4.17;3.87;;;;;;;21.99;29.41;94566.25;6042806;28;109063;-68
2023/04/05 04:53:29;;;;;;;5.23;4.83;;;;;;;21.99;29.62;94565.47;6031493;28;109045;-68
2023/04/05 04:56:32;;;;;;;6.37;5.83;;;;;;;21.98;29.29;94570.00;6042001;28;108854;-68
2023/04/05 04:59:36;;;;;;;6.83;6.20;;;;;;;22.00;29.38;94564.34;6023651;28;108998;-68
2023/04/05 05:02:41;;;;;;;6.63;6.13;;;;;;;21.99;29.42;94568.13;6019265;28;108898;-68
2023/04/05 05:05:48;;;;;;;7.47;6.87;;;;;;;22.00;29.19;94562.47;6008231;28;109167;-69
2023/04/05 05:08:52;;;;;;;6.90;6.40;;;;;;;22.01;29.65;94571.25;6018252;28;108972;-68
2023/04/05 05:11:58;;;;;;;7.00;6.50;;;;;;;22.01;29.72;94573.91;6019124;28;109027;-68
2023/04/05 05:15:01;;;;;;;6.30;5.80;;;;;;;22.02;29.73;94567.50;6016037;28;108916;-68
2023/04/05 05:18:05;;;;;;;7.27;6.67;;;;;;;22.01;29.43;94582.72;6013150;29;108981;-68
2023/04/05 05:21:10;;;;;;;5.80;5.40;;;;;;;22.02;29.78;94576.28;6018806;29;108917;-67
2023/04/05 05:24:16;;;;;;;6.17;5.70;;;;;;;22.03;29.72;94582.41;6018478;28;108922;-68
2023/04/05 05:27:21;;;;;;;5.70;5.30;;;;;;;22.03;29.51;94582.41;6009463;28;108842;-68
2023/04/05 05:30:26;;;;;;;5.63;5.13;;;;;;;22.02;29.91;94586.94;6035742;28;108944;-67
2023/04/05 05:33:29;;;;;;;5.53;5.13;;;;;;;21.98;29.67;94579.88;5995377;29;109028;-68
2023/04/05 05:36:34;;;;;;;5.17;4.87;;;;;;;21.90;30.03;94560.16;5995173;29;108864;-68
2023/04/05 05:39:38;;;;;;;5.50;5.10;;;;;;;22.01;29.90;94579.25;5984585;29;109209;-68
2023/04/05 05:42:42;;;;;;;5.00;4.60;;;;;;;21.99;29.80;94576.91;5995201;29;108874;-67
2023/04/05 05:45:45;;;;;;;4.87;4.50;;;;;;;22.00;29.84;94581.13;5995085;29;108958;-67
2023/04/05 05:48:49;;;;;;;5.40;4.90;;;;;;;21.99;29.79;94581.44;5995420;29;109104;-67
2023/04/05 05:51:55;;;;;;;4.50;4.20;;;;;;;22.09;29.58;94578.47;5984537;29;108927;-64
2023/04/05 05:54:59;;;;;;;4.50;4.10;;;;;;;22.24;29.84;94569.19;5995266;29;109026;-62
2023/04/05 05:58:03;;;;;;;5.17;4.77;;;;;;;22.22;29.78;94568.72;6006771;28;108886;-66
2023/04/05 06:01:07;;;;;;;5.07;4.67;;;;;;;22.18;29.72;94570.44;6035682;28;109850;-69
2023/04/05 06:04:11;;;;;;;4.00;3.70;;;;;;;22.17;30.24;94579.53;6039225;28;109268;-66
2023/04/05 06:07:16;;;;;;;4.23;3.93;;;;;;;22.17;29.88;94582.97;6041220;28;109094;-64
2023/04/05 06:10:20;;;;;;;4.03;3.73;;;;;;;22.16;30.04;94584.06;6041517;28;108933;-64
2023/04/05 06:13:24;;;;;;;4.30;4.00;;;;;;;22.16;29.87;94583.28;6030715;28;109938;-64
2023/04/05 06:16:29;;;;;;;4.53;4.17;;;;;;;22.10;29.96;94591.47;6041504;28;108973;-64
2023/04/05 06:19:33;;;;;;;3.97;3.70;;;;;;;22.15;29.99;94590.50;6041723;28;108826;-64
2023/04/05 06:22:39;;;;;;;4.00;3.70;;;;;;;22.14;29.58;94593.50;6041482;28;108948;-64
2023/04/05 06:25:43;;;;;;;4.03;3.73;;;;;;;22.15;30.00;94595.84;6032101;28;109672;-64
2023/04/05 06:28:48;;;;;;;4.33;4.03;;;;;;;22.13;29.91;94594.59;6028665;28;108857;-64
2023/04/05 06:31:51;;;;;;;4.03;3.70;;;;;;;22.14;29.82;94594.28;6017940;29;108938;-64
2023/04/05 06:34:55;;;;;;;3.73;3.43;;;;;;;22.15;30.02;94600.38;6012770;28;109022;-64
2023/04/05 06:38:00;;;;;;;3.97;3.67;;;;;;;22.15;29.74;94603.84;6012084;28;108925;-63
2023/04/05 06:41:04;;;;;;;3.50;3.30;;;;;;;22.25;29.59;94600.06;6017654;29;108914;-66
2023/04/05 06:44:09;;;;;;;3.70;3.40;;;;;;;22.33;29.50;94600.03;6017784;29;108943;-64
2023/04/05 06:47:13;;;;;;;3.47;3.27;;;;;;;22.40;29.42;94603.00;6007098;29;108919;-63
2023/04/05 06:50:16;;;;;;;3.30;3.10;;;;;;;22.45;29.10;94611.91;6017940;29;109018;-62
2023/04/05 06:53:21;;;;;;;3.13;2.93;;;;;;;22.48;29.00;94609.41;6017553;29;108981;-62
2023/04/05 06:56:25;;;;;;;3.93;3.63;;;;;;;22.49;29.34;94610.97;6017059;28;108937;-63
2023/04/05 06:59:29;;;;;;;3.00;2.80;;;;;;;22.51;29.22;94623.97;6022880;28;108916;-63
2023/04/05 07:02:33;;;;;;;3.20;2.93;;;;;;;22.48;29.25;94624.63;6041026;28;108937;-68
2023/04/05 07:05:38;;;;;;;3.30;3.10;;;;;;;22.54;29.51;94637.47;6040458;28;108953;-62
2023/04/05 07:08:43;;;;;;;3.27;3.07;;;;;;;22.56;29.50;94634.50;6037967;28;108894;-64
2023/04/05 07:11:47;;;;;;;2.97;2.77;;;;;;;22.56;29.00;94639.81;6034814;28;108898;-63
2023/04/05 07:14:50;;;;;;;3.03;2.80;;;;;;;22.57;28.91;94633.41;6040620;28;108974;-63
2023/04/05 07:17:54;;;;;;;3.20;3.00;;;;;;;22.58;29.59;94643.75;6040429;28;108826;-63
2023/04/05 07:21:02;;;;;;;2.70;2.50;;;;;;;22.60;29.29;94644.22;6030316;28;108981;-63
2023/04/05 07:24:08;;;;;;;2.80;2.60;;;;;;;22.61;29.27;94650.34;6040364;28;108897;-63
2023/04/05 07:27:11;;;;;;;2.60;2.40;;;;;;;22.61;29.40;94643.13;6040504;28;108747;-64
2023/04/05 07:30:15;;;;;;;2.50;2.30;;;;;;;22.59;28.91;94642.66;6017890;28;108968;-63
2023/04/05 07:33:19;;;;;;;3.10;2.90;;;;;;;22.60;29.19;94649.56;6010930;29;109788;-63
2023/04/05 07:36:23;;;;;;;2.70;2.50;;;;;;;22.60;28.92;94646.09;6020648;28;108912;-63
2023/04/05 07:39:28;;;;;;;2.87;2.67;;;;;;;22.60;29.12;94656.78;6020865;29;108945;-62
2023/04/05 07:42:34;;;;;;;2.03;1.93;;;;;;;22.57;29.02;94641.41;6020887;29;108798;-63
2023/04/05 07:45:38;;;;;;;2.00;1.90;;;;;;;22.62;29.38;94654.56;6010268;28;109065;-63
2023/04/05 07:48:42;;;;;;;2.40;2.30;;;;;;;22.63;29.25;94664.13;6020661;29;108846;-63
2023/04/05 07:51:47;;;;;;;2.07;1.97;;;;;;;22.64;29.29;94655.03;6020641;28;109011;-63
2023/04/05 07:54:52;;;;;;;2.63;2.47;;;;;;;22.62;29.15;94662.56;6010521;28;108942;-62
2023/04/05 07:57:57;;;;;;;1.93;1.83;;;;;;;22.61;29.14;94664.47;6024737;28;108849;-63
2023/04/05 08:01:01;;;;;;;2.40;2.20;;;;;;;22.60;28.93;94660.22;6043197;28;108968;-64
2023/04/05 08:04:04;;;;;;;2.37;2.17;;;;;;;22.64;29.20;94671.03;6043934;28;108918;-62
2023/04/05 08:07:09;;;;;;;2.03;1.80;;;;;;;22.63;29.31;94678.25;6032932;28;109011;-63
2023/04/05 08:10:14;;;;;;;2.47;2.27;;;;;;;22.62;28.95;94668.69;6043745;28;108983;-63
2023/04/05 08:13:17;;;;;;;2.03;1.90;;;;;;;22.63;29.40;94677.47;6043685;28;108905;-62
2023/04/05 08:16:21;;;;;;;1.97;1.87;;;;;;;22.64;28.88;94679.81;6043754;28;109091;-63
2023/04/05 08:19:24;;;;;;;2.00;1.90;;;;;;;22.63;28.98;94678.25;6033264;28;109174;-63
2023/04/05 08:22:29;;;;;;;2.10;2.00;;;;;;;22.64;29.07;94690.47;6043819;28;109217;-63
2023/04/05 08:25:34;;;;;;;1.97;1.87;;;;;;;22.67;29.36;94686.41;6043673;28;108878;-63
2023/04/05 08:28:37;;;;;;;1.97;1.87;;;;;;;22.66;29.25;94696.28;6038352;28;108877;-62
2023/04/05 08:31:41;;;;;;;2.23;2.03;;;;;;;22.66;28.97;94695.50;6037458;28;109226;-63
2023/04/05 08:34:44;;;;;;;1.93;1.83;;;;;;;22.65;28.94;94684.06;6043307;28;108877;-63
2023/04/05 08:37:48;;;;;;;1.87;1.77;;;;;;;22.64;28.98;94693.16;6043354;28;109068;-62
2023/04/05 08:40:53;;;;;;;2.23;2.03;;;;;;;22.67;28.89;94697.06;6031768;28;109055;-64
2023/04/05 08:44:01;;;;;;;1.70;1.60;;;;;;;22.65;29.14;94694.72;6042740;28;108923;-63
2023/04/05 08:47:05;;;;;;;1.90;1.80;;;;;;;22.66;29.08;94701.63;6043133;28;108794;-62
2023/04/05 08:50:12;;;;;;;2.07;1.97;;;;;;;22.65;28.81;94704.59;6043136;28;109006;-63
2023/04/05 08:53:16;;;;;;;2.30;1.90;;;;;;;22.68;29.45;94715.44;6032866;28;108934;-63
2023/04/05 08:56:25;;;;;;;1.70;1.60;;;;;;;22.68;29.06;94718.13;6042966;28;109036;-63
2023/04/05 08:59:31;;;;;;;1.70;1.60;;;;;;;22.67;29.14;94718.41;6026649;28;108996;-62
2023/04/05 09:02:36;;;;;;;1.50;1.40;;;;;;;22.70;29.48;94728.47;6014212;28;110871;-63
2023/04/05 09:05:45;;;;;;;1.77;1.67;;;;;;;22.69;29.11;94727.69;6013759;29;109714;-63
2023/04/05 09:08:49;;;;;;;1.50;1.40;;;;;;;22.69;28.79;94714.34;6019495;29;108967;-62
2023/04/05 09:11:55;;;;;;;1.50;1.40;;;;;;;22.72;29.10;94722.81;6019294;28;108959;-62
2023/04/05 09:15:01;;;;;;;1.93;1.70;;;;;;;22.70;29.01;94723.91;6008996;28;110315;-62
2023/04/05 09:18:05;;;;;;;1.70;1.60;;;;;;;22.71;29.17;94727.38;6019122;28;108916;-63
2023/04/05 09:21:28;;;;;;;1.67;1.57;;;;;;;22.70;29.13;94718.56;6019193;29;108841;-62
2023/04/05 09:24:38;;;;;;;1.87;1.77;;;;;;;22.75;29.29;94727.50;6019263;28;108992;-62
2023/04/05 09:27:56;;;;;;;1.53;1.43;;;;;;;22.73;29.47;94725.16;6010828;28;109627;-62
2023/04/05 09:30:59;;;;;;;1.60;1.50;;;;;;;22.74;28.95;94717.94;6042408;28;108803;-63
2023/04/05 09:34:04;;;;;;;1.73;1.63;;;;;;;22.72;29.40;94720.16;6041667;28;108885;-63
2023/04/05 09:37:14;;;;;;;1.43;1.33;;;;;;;22.73;29.54;94719.03;6034502;28;108949;-64
2023/04/05 09:40:18;;;;;;;1.47;1.37;;;;;;;22.77;29.03;94706.63;6041509;28;109032;-62
2023/04/05 09:43:39;;;;;;;1.47;1.37;;;;;;;22.78;29.34;94721.53;6042109;28;108896;-63
2023/04/05 09:46:43;;;;;;;1.40;1.30;;;;;;;22.73;29.37;94706.47;6042105;28;108839;-63
2023/04/05 09:49:47;;;;;;;1.30;1.20;;;;;;;22.79;29.23;94712.44;6030807;28;108976;-63
2023/04/05 09:52:51;;;;;;;1.73;1.63;;;;;;;22.76;29.25;94710.41;6041776;28;108984;-63
2023/04/05 09:56:08;;;;;;;1.53;1.27;;;;;;;22.78;29.37;94713.53;6042185;28;108850;-63
2023/04/05 09:59:13;;;;;;;1.40;1.30;;;;;;;22.79;29.46;94717.75;6025457;28;108970;-63
2023/04/05 10:02:17;;;;;;;1.33;1.23;;;;;;;22.77;29.16;94711.97;6012640;28;109161;-63
2023/04/05 10:05:24;;;;;;;1.40;1.30;;;;;;;22.81;29.05;94712.88;6016957;28;109005;-62
2023/04/05 10:08:28;;;;;;;1.30;1.20;;;;;;;22.82;29.08;94709.13;6018365;29;108830;-63
2023/04/05 10:11:32;;;;;;;1.50;1.40;;;;;;;22.80;29.06;94700.66;6007432;28;108873;-63
2023/04/05 10:14:38;;;;;;;1.40;1.30;;;;;;;22.81;29.42;94702.22;6017891;29;108950;-62
2023/04/05 10:17:48;;;;;;;1.43;1.33;;;;;;;22.82;29.20;94717.91;6018114;28;108861;-63
2023/04/05 10:20:54;;;;;;;1.40;1.30;;;;;;;22.81;28.97;94724.34;6018100;28;109004;-62
2023/04/05 10:24:05;;;;;;;1.30;1.20;;;;;;;22.81;29.31;94715.56;6007542;28;109026;-62
2023/04/05 10:27:18;;;;;;;1.50;1.40;;;;;;;22.80;29.38;94711.31;6017923;28;108909;-63
2023/04/05 10:30:25;;;;;;;1.60;1.50;;;;;;;22.80;29.35;94714.00;6040741;28;109120;-62
2023/04/05 10:33:33;;;;;;;1.10;1.10;;;;;;;22.82;29.12;94703.78;6036261;28;109052;-62
2023/04/05 10:36:45;;;;;;;1.23;1.13;;;;;;;22.82;29.38;94725.13;5988422;29;108900;-62
2023/04/05 10:39:49;;;;;;;1.50;1.40;;;;;;;22.81;28.99;94720.88;5994576;29;108929;-62
2023/04/05 10:42:52;;;;;;;1.40;1.30;;;;;;;22.80;29.50;94712.09;5994578;29;108961;-62
2023/04/05 10:45:59;;;;;;;1.57;1.47;;;;;;;22.81;29.57;94712.88;5984187;29;108847;-62
2023/04/05 10:49:08;;;;;;;1.43;1.33;;;;;;;22.81;29.26;94724.34;5994570;29;109015;-62
2023/04/05 10:52:12;;;;;;;1.30;1.20;;;;;;;22.80;29.48;94719.31;5994594;29;108794;-62
2023/04/05 10:55:16;;;;;;;1.37;1.27;;;;;;;22.83;29.60;94710.69;5994411;29;109006;-63
2023/04/05 10:58:23;;;;;;;1.50;1.40;;;;;;;22.83;29.18;94711.47;5996207;28;109219;-62
2023/04/05 11:01:28;;;;;;;1.37;1.27;;;;;;;22.80;29.47;94717.44;6040780;28;108950;-62
2023/04/05 11:04:34;;;;;;;1.40;1.30;;;;;;;22.83;29.54;94716.00;6040621;28;109013;-63
2023/04/05 11:07:49;;;;;;;1.57;1.47;;;;;;;22.80;29.60;94722.00;6039102;28;109010;-68
2023/04/05 11:10:53;;;;;;;1.50;1.40;;;;;;;22.73;30.11;94727.81;6039620;28;109225;-63
2023/04/05 11:13:58;;;;;;;3.73;1.80;;;;;;;22.76;29.70;94724.50;6044513;28;108969;-63
2023/04/05 11:17:04;;;;;;;2.07;1.87;;;;;;;22.81;29.83;94726.22;6044819;28;108913;-63
2023/04/05 11:20:12;;;;;;;1.40;1.30;;;;;;;22.81;29.73;94718.22;6033931;28;108841;-64
2023/04/05 11:23:17;;;;;;;1.63;1.53;;;;;;;22.81;29.72;94721.66;6044749;28;108811;-63
2023/04/05 11:26:21;;;;;;;3.17;1.50;;;;;;;22.87;29.39;94732.97;6044633;28;108966;-67
2023/04/05 11:29:48;;;;;;;1.43;1.33;;;;;;;22.85;29.88;94713.81;6044898;28;108934;-63
2023/04/05 11:32:53;;;;;;;1.43;1.33;;;;;;;22.85;29.42;94725.28;6034385;28;108823;-61
2023/04/05 11:36:01;;;;;;;1.67;1.57;;;;;;;22.85;29.54;94722.63;6044560;28;108936;-63
2023/04/05 11:39:24;;;;;;;1.50;1.40;;;;;;;22.86;29.79;94726.06;6043750;28;109015;-62
2023/04/05 11:42:28;;;;;;;1.50;1.40;;;;;;;22.86;29.44;94715.41;6033905;28;108913;-63
2023/04/05 11:45:33;;;;;;;1.53;1.43;;;;;;;22.86;29.58;94723.41;6044176;28;108944;-62
2023/04/05 11:48:38;;;;;;;1.30;1.30;;;;;;;22.87;29.77;94712.41;6044147;28;109057;-63
2023/04/05 11:51:48;;;;;;;1.60;1.50;;;;;;;22.87;29.63;94727.63;6044546;28;108890;-65
2023/04/05 11:54:52;;;;;;;1.87;1.70;;;;;;;22.84;29.66;94710.34;6033571;28;109632;-63
2023/04/05 11:57:56;;;;;;;1.50;1.40;;;;;;;22.88;29.60;94718.53;6040871;28;108899;-63
2023/04/05 12:01:01;;;;;;;1.57;1.47;;;;;;;22.87;29.62;94727.63;6021006;28;109050;-77
2023/04/05 12:04:07;;;;;;;1.70;1.60;;;;;;;22.89;29.63;94725.44;6020479;28;109042;-64
2023/04/05 12:07:13;;;;;;;1.80;1.70;;;;;;;22.87;29.53;94723.09;6011096;28;109018;-63
2023/04/05 12:10:17;;;;;;;1.87;1.77;;;;;;;22.90;29.63;94727.00;6019782;29;108774;-63
2023/04/05 12:13:29;;;;;;;1.60;1.50;;;;;;;22.90;29.56;94727.00;6020443;29;108933;-63
2023/04/05 12:16:32;;;;;;;1.90;1.80;;;;;;;22.87;29.55;94728.44;6007865;28;109010;-63
2023/04/05 12:19:37;;;;;;;1.80;1.70;;;;;;;22.89;29.62;94722.78;5996889;29;108885;-63
2023/04/05 12:22:43;;;;;;;1.90;1.80;;;;;;;22.84;29.31;94720.25;5997293;29;108909;-63
2023/04/05 12:25:47;;;;;;;2.03;1.93;;;;;;;22.88;29.07;94715.88;5997273;29;108783;-63
2023/04/05 12:28:52;;;;;;;1.67;1.57;;;;;;;22.87;29.86;94732.97;6006077;28;108983;-63
2023/04/05 12:31:57;;;;;;;1.50;1.40;;;;;;;22.91;29.64;94723.22;6043773;28;108863;-63
2023/04/05 12:35:06;;;;;;;1.80;1.70;;;;;;;22.89;29.51;94714.75;6043546;28;108822;-63
2023/04/05 12:38:16;;;;;;;1.80;1.70;;;;;;;22.88;29.64;94711.31;6043352;28;108879;-63
2023/04/05 12:41:28;;;;;;;1.77;1.67;;;;;;;22.91;29.09;94715.22;6033816;28;108908;-63
2023/04/05 12:44:34;;;;;;;2.00;1.90;;;;;;;22.92;29.56;94725.56;6043272;28;108810;-63
2023/04/05 12:47:48;;;;;;;1.77;1.67;;;;;;;22.89;29.34;94715.53;6043246;28;108889;-63
2023/04/05 12:50:54;;;;;;;1.70;1.60;;;;;;;22.93;29.59;94724.47;6032109;28;109843;-64
2023/04/05 12:53:57;;;;;;;1.70;1.60;;;;;;;22.93;29.16;94734.38;6043245;28;108866;-63
2023/04/05 12:57:07;;;;;;;1.87;1.77;;;;;;;22.90;29.54;94716.31;6043257;28;108900;-73
2023/04/05 13:00:12;;;;;;;1.80;1.70;;;;;;;22.91;29.43;94717.91;6022732;28;109002;-64
2023/04/05 13:03:19;;;;;;;1.80;1.70;;;;;;;22.93;29.04;94726.34;6009428;28;109097;-64
2023/04/05 13:06:25;;;;;;;1.80;1.70;;;;;;;22.93;29.29;94727.13;6018654;28;109676;-63
2023/04/05 13:09:31;;;;;;;1.90;1.80;;;;;;;22.91;29.09;94729.34;6019516;28;108928;-64
2023/04/05 13:12:34;;;;;;;2.00;1.90;;;;;;;22.93;29.19;94721.03;6014169;28;108968;-63
2023/04/05 13:15:38;;;;;;;2.07;1.97;;;;;;;22.91;29.18;94737.34;6009344;28;109118;-67
2023/04/05 13:18:42;;;;;;;2.37;2.20;;;;;;;22.93;29.23;94731.69;6019309;29;108928;-63
2023/04/05 13:21:47;;;;;;;2.30;2.10;;;;;;;22.91;29.60;94740.03;6019023;28;108999;-63
2023/04/05 13:24:52;;;;;;;2.17;2.07;;;;;;;22.90;29.36;94743.00;6009576;29;108973;-62
2023/04/05 13:27:56;;;;;;;2.00;1.90;;;;;;;22.88;29.58;94737.22;6018714;29;108920;-63
2023/04/05 13:31:17;;;;;;;2.10;2.00;;;;;;;22.91;29.46;94736.56;6019075;29;108841;-63
2023/04/05 13:34:21;;;;;;;2.10;2.00;;;;;;;22.91;29.26;94728.56;6018888;28;108960;-72
2023/04/05 13:37:27;;;;;;;2.00;1.87;;;;;;;22.93;29.19;94723.69;6009210;29;110244;-62
2023/04/05 13:40:31;;;;;;;2.33;2.10;;;;;;;22.84;29.25;94720.25;6018757;28;108989;-63
2023/04/05 13:43:35;;;;;;;2.30;2.20;;;;;;;22.89;29.22;94733.44;6018766;28;109104;-63
2023/04/05 13:46:38;;;;;;;2.10;2.00;;;;;;;22.80;29.59;94727.31;6015430;29;108924;-64
2023/04/05 13:49:42;;;;;;;2.10;2.00;;;;;;;22.89;29.88;94742.22;6012933;29;108863;-63
2023/04/05 13:52:47;;;;;;;2.00;1.90;;;;;;;22.87;29.41;94735.66;6018638;29;108908;-63
2023/04/05 13:55:50;;;;;;;1.90;1.80;;;;;;;22.89;29.22;94749.44;6018285;28;108887;-62
2023/04/05 13:58:54;;;;;;;2.20;2.10;;;;;;;22.86;29.36;94737.53;6010930;28;109033;-63
2023/04/05 14:01:58;;;;;;;2.07;1.97;;;;;;;22.86;29.75;94742.09;6018262;28;108976;-62
2023/04/05 14:05:01;;;;;;;2.00;1.90;;;;;;;22.87;29.47;94735.66;6011366;29;109015;-62
2023/04/05 14:08:07;;;;;;;2.23;2.13;;;;;;;22.87;29.32;94746.31;6016955;29;108913;-63
2023/04/05 14:11:10;;;;;;;2.40;2.27;;;;;;;22.76;29.86;94747.75;6007479;28;108927;-67
2023/04/05 14:14:14;;;;;;;3.87;3.53;;;;;;;22.61;29.58;94757.81;6016779;28;108927;-69
2023/04/05 14:17:17;;;;;;;4.47;4.07;;;;;;;22.49;29.88;94752.28;6008195;28;108899;-69
2023/04/05 14:20:21;;;;;;;5.10;4.63;;;;;;;22.53;29.91;94755.13;6024515;28;109098;-69
2023/04/05 14:23:26;;;;;;;4.83;4.43;;;;;;;22.53;29.58;94752.47;6015978;28;109100;-69